sensor_id;sensor_type;location;lat;lon;timestamp;temperature;humidity
20208;DHT22;10263;48.716;8.760;2023-11-19T00:00:05;8.00;99.90
20208;DHT22;10263;48.716;8.760;2023-11-19T00:02:36;7.70;99.90
20208;DHT22;10263;48.716;8.760;2023-11-19T00:05:05;7.90;99.90
20208;DHT22;10263;48.716;8.760;2023-11-19T00:07:35;8.10;99.90
20208;DHT22;10263;48.716;8.760;2023-11-19T00:10:03;7.90;99.90
20208;DHT22;10263;48.716;8.760;2023-11-19T00:12:36;7.90;99.90
20208;DHT22;10263;48.716;8.760;2023-11-19T00:15:03;8.10;99.90
20208;DHT22;10263;48.716;8.760;2023-11-19T00:17:31;8.20;99.90
20208;DHT22;10263;48.716;8.760;2023-11-19T00:22:26;8.00;99.90
20208;DHT22;10263;48.716;8.760;2023-11-19T00:27:20;8.00;99.90
20208;DHT22;10263;48.716;8.760;2023-11-19T00:34:43;8.20;99.90
20208;DHT22;10263;48.716;8.760;2023-11-19T00:37:10;8.00;99.90
20208;DHT22;10263;48.716;8.760;2023-11-19T00:39:38;8.10;99.90
20208;DHT22;10263;48.716;8.760;2023-11-19T00:42:05;8.10;99.90
20208;DHT22;10263;48.716;8.760;2023-11-19T00:44:32;8.00;99.90
20208;DHT22;10263;48.716;8.760;2023-11-19T00:46:59;8.20;99.90
20208;DHT22;10263;48.716;8.760;2023-11-19T00:49:26;8.10;99.90
20208;DHT22;10263;48.716;8.760;2023-11-19T00:51:53;8.00;99.90
20208;DHT22;10263;48.716;8.760;2023-11-19T00:54:19;8.40;99.90
20208;DHT22;10263;48.716;8.760;2023-11-19T00:56:47;8.20;99.90
20208;DHT22;10263;48.716;8.760;2023-11-19T00:59:14;8.20;99.90
20208;DHT22;10263;48.716;8.760;2023-11-19T01:01:41;8.00;99.90
20208;DHT22;10263;48.716;8.760;2023-11-19T01:04:08;8.30;99.90
20208;DHT22;10263;48.716;8.760;2023-11-19T01:11:30;8.20;99.90
20208;DHT22;10263;48.716;8.760;2023-11-19T01:13:58;8.50;99.90
20208;DHT22;10263;48.716;8.760;2023-11-19T01:16:26;8.10;99.90
20208;DHT22;10263;48.716;8.760;2023-11-19T01:18:53;8.10;99.90
20208;DHT22;10263;48.716;8.760;2023-11-19T01:23:47;8.10;99.90
20208;DHT22;10263;48.716;8.760;2023-11-19T01:26:15;8.00;99.90
20208;DHT22;10263;48.716;8.760;2023-11-19T01:28:42;8.20;99.90
20208;DHT22;10263;48.716;8.760;2023-11-19T01:31:12;8.20;99.90
20208;DHT22;10263;48.716;8.760;2023-11-19T01:33:39;8.20;99.90
20208;DHT22;10263;48.716;8.760;2023-11-19T01:36:07;8.20;99.90
20208;DHT22;10263;48.716;8.760;2023-11-19T01:41:02;8.20;99.90
20208;DHT22;10263;48.716;8.760;2023-11-19T01:43:35;8.20;99.90
20208;DHT22;10263;48.716;8.760;2023-11-19T01:46:04;8.30;99.90
20208;DHT22;10263;48.716;8.760;2023-11-19T01:48:33;8.30;99.90
20208;DHT22;10263;48.716;8.760;2023-11-19T01:51:01;8.40;99.90
20208;DHT22;10263;48.716;8.760;2023-11-19T01:53:28;8.30;99.90
20208;DHT22;10263;48.716;8.760;2023-11-19T02:05:48;8.50;99.90
20208;DHT22;10263;48.716;8.760;2023-11-19T02:08:16;8.40;99.90
20208;DHT22;10263;48.716;8.760;2023-11-19T02:15:40;8.60;99.90
20208;DHT22;10263;48.716;8.760;2023-11-19T02:18:20;8.40;99.90
20208;DHT22;10263;48.716;8.760;2023-11-19T02:20:49;8.60;99.90
20208;DHT22;10263;48.716;8.760;2023-11-19T02:23:17;8.60;99.90
20208;DHT22;10263;48.716;8.760;2023-11-19T02:25:48;8.70;99.90
20208;DHT22;10263;48.716;8.760;2023-11-19T02:28:20;8.60;99.90
20208;DHT22;10263;48.716;8.760;2023-11-19T02:35:41;8.50;99.90
20208;DHT22;10263;48.716;8.760;2023-11-19T02:45:32;8.90;99.90
20208;DHT22;10263;48.716;8.760;2023-11-19T02:47:59;8.90;99.90
20208;DHT22;10263;48.716;8.760;2023-11-19T02:50:28;8.90;99.90
20208;DHT22;10263;48.716;8.760;2023-11-19T02:52:55;8.80;99.90
20208;DHT22;10263;48.716;8.760;2023-11-19T02:55:23;8.80;99.90
20208;DHT22;10263;48.716;8.760;2023-11-19T03:00:19;9.00;99.90
20208;DHT22;10263;48.716;8.760;2023-11-19T03:02:51;9.00;99.90
20208;DHT22;10263;48.716;8.760;2023-11-19T03:05:25;9.00;99.90
20208;DHT22;10263;48.716;8.760;2023-11-19T03:07:55;9.10;99.90
20208;DHT22;10263;48.716;8.760;2023-11-19T03:10:23;9.10;99.90
20208;DHT22;10263;48.716;8.760;2023-11-19T03:12:49;8.90;99.90
20208;DHT22;10263;48.716;8.760;2023-11-19T03:15:16;9.00;99.90
20208;DHT22;10263;48.716;8.760;2023-11-19T03:20:12;9.00;99.90
20208;DHT22;10263;48.716;8.760;2023-11-19T03:22:41;9.00;99.90
20208;DHT22;10263;48.716;8.760;2023-11-19T03:25:08;9.20;99.90
20208;DHT22;10263;48.716;8.760;2023-11-19T03:27:35;9.10;99.90
20208;DHT22;10263;48.716;8.760;2023-11-19T03:30:02;9.10;99.90
20208;DHT22;10263;48.716;8.760;2023-11-19T03:32:30;9.00;99.90
20208;DHT22;10263;48.716;8.760;2023-11-19T03:37:26;9.10;99.90
20208;DHT22;10263;48.716;8.760;2023-11-19T03:42:25;9.10;99.90
20208;DHT22;10263;48.716;8.760;2023-11-19T03:44:52;9.20;99.90
20208;DHT22;10263;48.716;8.760;2023-11-19T03:47:19;9.10;99.90
20208;DHT22;10263;48.716;8.760;2023-11-19T03:49:48;8.90;99.90
20208;DHT22;10263;48.716;8.760;2023-11-19T03:52:15;9.10;99.90
20208;DHT22;10263;48.716;8.760;2023-11-19T03:54:44;9.10;99.90
20208;DHT22;10263;48.716;8.760;2023-11-19T03:57:11;9.20;99.90
20208;DHT22;10263;48.716;8.760;2023-11-19T03:59:39;9.20;99.90
20208;DHT22;10263;48.716;8.760;2023-11-19T04:02:06;9.20;99.90
20208;DHT22;10263;48.716;8.760;2023-11-19T04:04:32;9.40;99.90
20208;DHT22;10263;48.716;8.760;2023-11-19T04:07:00;9.20;99.90
20208;DHT22;10263;48.716;8.760;2023-11-19T04:09:28;9.30;99.90
20208;DHT22;10263;48.716;8.760;2023-11-19T04:11:57;9.50;99.90
20208;DHT22;10263;48.716;8.760;2023-11-19T04:14:24;9.50;99.90
20208;DHT22;10263;48.716;8.760;2023-11-19T04:16:51;9.40;99.90
20208;DHT22;10263;48.716;8.760;2023-11-19T04:19:18;9.50;99.90
20208;DHT22;10263;48.716;8.760;2023-11-19T04:21:45;9.50;99.90
20208;DHT22;10263;48.716;8.760;2023-11-19T04:24:12;9.40;99.90
20208;DHT22;10263;48.716;8.760;2023-11-19T04:26:40;9.50;99.90
20208;DHT22;10263;48.716;8.760;2023-11-19T04:29:11;9.40;99.90
20208;DHT22;10263;48.716;8.760;2023-11-19T04:31:38;9.60;99.90
20208;DHT22;10263;48.716;8.760;2023-11-19T04:36:32;9.40;99.90
20208;DHT22;10263;48.716;8.760;2023-11-19T04:38:59;9.50;99.90
20208;DHT22;10263;48.716;8.760;2023-11-19T04:41:26;9.50;99.90
20208;DHT22;10263;48.716;8.760;2023-11-19T04:43:54;9.50;99.90
20208;DHT22;10263;48.716;8.760;2023-11-19T04:46:22;9.40;99.90
20208;DHT22;10263;48.716;8.760;2023-11-19T04:48:50;9.40;99.90
20208;DHT22;10263;48.716;8.760;2023-11-19T04:51:16;9.40;99.90
20208;DHT22;10263;48.716;8.760;2023-11-19T04:56:11;9.60;99.90
20208;DHT22;10263;48.716;8.760;2023-11-19T04:58:38;9.60;99.90
20208;DHT22;10263;48.716;8.760;2023-11-19T05:01:06;9.80;99.90
20208;DHT22;10263;48.716;8.760;2023-11-19T05:03:34;9.70;99.90
20208;DHT22;10263;48.716;8.760;2023-11-19T05:06:01;9.80;99.90
20208;DHT22;10263;48.716;8.760;2023-11-19T05:08:28;9.70;99.90
20208;DHT22;10263;48.716;8.760;2023-11-19T05:10:55;9.90;99.90
20208;DHT22;10263;48.716;8.760;2023-11-19T05:20:46;9.80;99.90
20208;DHT22;10263;48.716;8.760;2023-11-19T05:23:13;9.80;99.90
20208;DHT22;10263;48.716;8.760;2023-11-19T05:25:39;9.80;99.90
20208;DHT22;10263;48.716;8.760;2023-11-19T05:28:06;9.70;99.90
20208;DHT22;10263;48.716;8.760;2023-11-19T05:35:27;9.70;99.90
20208;DHT22;10263;48.716;8.760;2023-11-19T05:37:55;9.80;99.90
20208;DHT22;10263;48.716;8.760;2023-11-19T05:40:22;10.00;99.90
20208;DHT22;10263;48.716;8.760;2023-11-19T05:42:49;9.80;99.90
20208;DHT22;10263;48.716;8.760;2023-11-19T05:45:16;9.80;99.90
20208;DHT22;10263;48.716;8.760;2023-11-19T05:47:43;9.80;99.90
20208;DHT22;10263;48.716;8.760;2023-11-19T05:50:10;10.00;99.90
20208;DHT22;10263;48.716;8.760;2023-11-19T05:52:37;10.00;99.90
20208;DHT22;10263;48.716;8.760;2023-11-19T05:55:05;9.80;99.90
20208;DHT22;10263;48.716;8.760;2023-11-19T05:57:35;10.00;99.90
20208;DHT22;10263;48.716;8.760;2023-11-19T06:02:37;10.00;99.90
20208;DHT22;10263;48.716;8.760;2023-11-19T06:05:04;10.00;99.90
20208;DHT22;10263;48.716;8.760;2023-11-19T06:07:32;10.00;99.90
20208;DHT22;10263;48.716;8.760;2023-11-19T06:09:58;9.90;99.90
20208;DHT22;10263;48.716;8.760;2023-11-19T06:12:26;10.00;99.90
20208;DHT22;10263;48.716;8.760;2023-11-19T06:14:54;10.10;99.90
20208;DHT22;10263;48.716;8.760;2023-11-19T06:17:20;10.00;99.90
20208;DHT22;10263;48.716;8.760;2023-11-19T06:19:47;10.00;99.90
20208;DHT22;10263;48.716;8.760;2023-11-19T06:22:14;10.10;99.90
20208;DHT22;10263;48.716;8.760;2023-11-19T06:29:37;10.30;99.90
20208;DHT22;10263;48.716;8.760;2023-11-19T06:32:06;10.30;99.90
20208;DHT22;10263;48.716;8.760;2023-11-19T06:34:33;10.20;99.90
20208;DHT22;10263;48.716;8.760;2023-11-19T06:37:00;10.40;99.90
20208;DHT22;10263;48.716;8.760;2023-11-19T06:46:52;10.10;99.90
20208;DHT22;10263;48.716;8.760;2023-11-19T06:49:19;10.30;99.90
20208;DHT22;10263;48.716;8.760;2023-11-19T06:56:41;10.40;99.90
20208;DHT22;10263;48.716;8.760;2023-11-19T06:59:09;10.30;99.90
20208;DHT22;10263;48.716;8.760;2023-11-19T07:01:35;10.40;99.90
20208;DHT22;10263;48.716;8.760;2023-11-19T07:04:04;10.40;99.90
20208;DHT22;10263;48.716;8.760;2023-11-19T07:06:34;10.70;99.90
20208;DHT22;10263;48.716;8.760;2023-11-19T07:09:02;10.50;99.90
20208;DHT22;10263;48.716;8.760;2023-11-19T07:11:35;10.40;99.90
20208;DHT22;10263;48.716;8.760;2023-11-19T07:14:03;10.50;99.90
20208;DHT22;10263;48.716;8.760;2023-11-19T07:16:30;10.70;99.90
20208;DHT22;10263;48.716;8.760;2023-11-19T07:21:27;10.60;99.90
20208;DHT22;10263;48.716;8.760;2023-11-19T07:23:54;10.80;99.90
20208;DHT22;10263;48.716;8.760;2023-11-19T07:28:48;10.70;99.90
20208;DHT22;10263;48.716;8.760;2023-11-19T07:33:44;10.80;99.90
20208;DHT22;10263;48.716;8.760;2023-11-19T07:36:12;10.80;99.90
20208;DHT22;10263;48.716;8.760;2023-11-19T07:38:40;10.70;99.90
20208;DHT22;10263;48.716;8.760;2023-11-19T07:41:07;10.60;99.90
20208;DHT22;10263;48.716;8.760;2023-11-19T07:43:35;10.70;99.90
20208;DHT22;10263;48.716;8.760;2023-11-19T07:48:30;10.90;99.90
20208;DHT22;10263;48.716;8.760;2023-11-19T07:50:57;10.90;99.90
20208;DHT22;10263;48.716;8.760;2023-11-19T07:53:23;10.70;99.90
20208;DHT22;10263;48.716;8.760;2023-11-19T07:55:51;10.60;99.90
20208;DHT22;10263;48.716;8.760;2023-11-19T08:00:45;10.90;99.90
20208;DHT22;10263;48.716;8.760;2023-11-19T08:05:39;10.80;99.90
20208;DHT22;10263;48.716;8.760;2023-11-19T08:13:02;11.10;99.90
20208;DHT22;10263;48.716;8.760;2023-11-19T08:15:28;11.00;99.90
20208;DHT22;10263;48.716;8.760;2023-11-19T08:17:55;11.00;99.90
20208;DHT22;10263;48.716;8.760;2023-11-19T08:20:22;10.80;99.90
20208;DHT22;10263;48.716;8.760;2023-11-19T08:22:49;10.90;99.90
20208;DHT22;10263;48.716;8.760;2023-11-19T08:25:16;11.10;99.90
20208;DHT22;10263;48.716;8.760;2023-11-19T08:27:43;11.00;99.90
20208;DHT22;10263;48.716;8.760;2023-11-19T08:30:12;11.10;99.90
20208;DHT22;10263;48.716;8.760;2023-11-19T08:32:39;11.30;99.90
20208;DHT22;10263;48.716;8.760;2023-11-19T08:35:06;11.20;99.90
20208;DHT22;10263;48.716;8.760;2023-11-19T08:37:34;11.10;99.90
20208;DHT22;10263;48.716;8.760;2023-11-19T08:40:02;11.30;99.90
20208;DHT22;10263;48.716;8.760;2023-11-19T08:42:30;11.40;99.90
20208;DHT22;10263;48.716;8.760;2023-11-19T08:44:57;11.50;99.90
20208;DHT22;10263;48.716;8.760;2023-11-19T08:47:25;11.50;99.90
20208;DHT22;10263;48.716;8.760;2023-11-19T08:49:52;11.40;99.90
20208;DHT22;10263;48.716;8.760;2023-11-19T08:52:20;11.50;99.90
20208;DHT22;10263;48.716;8.760;2023-11-19T08:54:47;11.60;99.90
20208;DHT22;10263;48.716;8.760;2023-11-19T08:57:14;11.60;99.90
20208;DHT22;10263;48.716;8.760;2023-11-19T08:59:40;11.70;99.90
20208;DHT22;10263;48.716;8.760;2023-11-19T09:02:07;11.90;99.90
20208;DHT22;10263;48.716;8.760;2023-11-19T09:04:36;11.80;99.90
20208;DHT22;10263;48.716;8.760;2023-11-19T09:07:03;11.90;99.90
20208;DHT22;10263;48.716;8.760;2023-11-19T09:09:29;12.00;99.90
20208;DHT22;10263;48.716;8.760;2023-11-19T09:14:27;12.20;99.90
20208;DHT22;10263;48.716;8.760;2023-11-19T09:16:53;12.40;99.90
20208;DHT22;10263;48.716;8.760;2023-11-19T09:19:21;12.60;99.90
20208;DHT22;10263;48.716;8.760;2023-11-19T09:21:49;12.60;99.90
20208;DHT22;10263;48.716;8.760;2023-11-19T09:24:16;12.80;99.90
20208;DHT22;10263;48.716;8.760;2023-11-19T09:26:43;13.10;99.90
20208;DHT22;10263;48.716;8.760;2023-11-19T09:29:10;13.60;99.90
20208;DHT22;10263;48.716;8.760;2023-11-19T09:31:38;13.90;99.90
20208;DHT22;10263;48.716;8.760;2023-11-19T09:34:05;14.10;99.90
20208;DHT22;10263;48.716;8.760;2023-11-19T09:36:32;14.50;99.90
20208;DHT22;10263;48.716;8.760;2023-11-19T09:39:00;14.70;99.90
20208;DHT22;10263;48.716;8.760;2023-11-19T09:41:27;15.50;99.90
20208;DHT22;10263;48.716;8.760;2023-11-19T09:43:54;15.80;99.90
20208;DHT22;10263;48.716;8.760;2023-11-19T09:46:22;15.90;99.90
20208;DHT22;10263;48.716;8.760;2023-11-19T09:48:52;16.20;99.90
20208;DHT22;10263;48.716;8.760;2023-11-19T09:56:17;16.30;99.90
20208;DHT22;10263;48.716;8.760;2023-11-19T09:58:44;15.20;99.90
20208;DHT22;10263;48.716;8.760;2023-11-19T10:03:39;15.90;99.90
20208;DHT22;10263;48.716;8.760;2023-11-19T10:06:09;16.20;99.90
20208;DHT22;10263;48.716;8.760;2023-11-19T10:08:37;16.30;99.90
20208;DHT22;10263;48.716;8.760;2023-11-19T10:11:05;16.90;99.90
20208;DHT22;10263;48.716;8.760;2023-11-19T10:13:35;17.00;99.90
20208;DHT22;10263;48.716;8.760;2023-11-19T10:16:04;16.50;99.90
20208;DHT22;10263;48.716;8.760;2023-11-19T10:18:33;17.00;99.90
20208;DHT22;10263;48.716;8.760;2023-11-19T10:21:04;17.00;99.90
20208;DHT22;10263;48.716;8.760;2023-11-19T10:23:31;17.50;99.90
20208;DHT22;10263;48.716;8.760;2023-11-19T10:28:40;17.10;99.90
20208;DHT22;10263;48.716;8.760;2023-11-19T10:31:09;16.60;99.90
20208;DHT22;10263;48.716;8.760;2023-11-19T10:33:36;17.30;99.90
20208;DHT22;10263;48.716;8.760;2023-11-19T10:36:03;17.00;99.90
20208;DHT22;10263;48.716;8.760;2023-11-19T10:38:30;16.70;99.90
20208;DHT22;10263;48.716;8.760;2023-11-19T10:40:57;16.80;99.90
20208;DHT22;10263;48.716;8.760;2023-11-19T10:43:24;16.70;99.90
20208;DHT22;10263;48.716;8.760;2023-11-19T10:45:52;16.90;99.90
20208;DHT22;10263;48.716;8.760;2023-11-19T10:48:19;16.70;99.90
20208;DHT22;10263;48.716;8.760;2023-11-19T10:50:51;16.90;99.90
20208;DHT22;10263;48.716;8.760;2023-11-19T10:53:20;16.30;99.90
20208;DHT22;10263;48.716;8.760;2023-11-19T10:55:47;16.30;99.90
20208;DHT22;10263;48.716;8.760;2023-11-19T10:58:16;16.50;99.90
20208;DHT22;10263;48.716;8.760;2023-11-19T11:00:44;16.60;99.90
20208;DHT22;10263;48.716;8.760;2023-11-19T11:03:16;16.50;99.90
20208;DHT22;10263;48.716;8.760;2023-11-19T11:05:46;16.50;99.90
20208;DHT22;10263;48.716;8.760;2023-11-19T11:08:14;16.70;99.90
20208;DHT22;10263;48.716;8.760;2023-11-19T11:10:44;16.10;99.90
20208;DHT22;10263;48.716;8.760;2023-11-19T11:13:11;16.60;99.90
20208;DHT22;10263;48.716;8.760;2023-11-19T11:15:39;16.80;99.90
20208;DHT22;10263;48.716;8.760;2023-11-19T11:18:09;16.70;99.90
20208;DHT22;10263;48.716;8.760;2023-11-19T11:20:37;16.50;99.90
20208;DHT22;10263;48.716;8.760;2023-11-19T11:23:36;16.70;99.90
20208;DHT22;10263;48.716;8.760;2023-11-19T11:26:19;16.80;99.90
20208;DHT22;10263;48.716;8.760;2023-11-19T11:28:56;16.80;99.90
20208;DHT22;10263;48.716;8.760;2023-11-19T11:31:31;16.90;99.90
20208;DHT22;10263;48.716;8.760;2023-11-19T11:34:13;16.70;99.90
20208;DHT22;10263;48.716;8.760;2023-11-19T11:36:57;16.60;99.90
20208;DHT22;10263;48.716;8.760;2023-11-19T11:39:29;16.50;99.90
20208;DHT22;10263;48.716;8.760;2023-11-19T11:42:33;16.70;99.90
20208;DHT22;10263;48.716;8.760;2023-11-19T11:45:01;16.80;99.90
20208;DHT22;10263;48.716;8.760;2023-11-19T11:50:49;18.20;99.90
20208;DHT22;10263;48.716;8.760;2023-11-19T11:53:18;17.90;99.90
20208;DHT22;10263;48.716;8.760;2023-11-19T11:55:58;17.70;99.90
20208;DHT22;10263;48.716;8.760;2023-11-19T11:58:31;17.60;99.90
20208;DHT22;10263;48.716;8.760;2023-11-19T12:00:58;17.40;99.90
20208;DHT22;10263;48.716;8.760;2023-11-19T12:03:27;17.30;99.90
20208;DHT22;10263;48.716;8.760;2023-11-19T12:05:54;17.00;99.90
20208;DHT22;10263;48.716;8.760;2023-11-19T12:08:26;17.70;99.90
20208;DHT22;10263;48.716;8.760;2023-11-19T12:10:54;16.90;99.90
20208;DHT22;10263;48.716;8.760;2023-11-19T12:18:48;16.60;99.90
20208;DHT22;10263;48.716;8.760;2023-11-19T12:21:29;16.30;99.90
20208;DHT22;10263;48.716;8.760;2023-11-19T12:23:58;16.20;99.90
20208;DHT22;10263;48.716;8.760;2023-11-19T12:26:47;16.10;99.90
20208;DHT22;10263;48.716;8.760;2023-11-19T12:29:18;15.80;99.90
20208;DHT22;10263;48.716;8.760;2023-11-19T12:31:53;16.30;99.90
20208;DHT22;10263;48.716;8.760;2023-11-19T12:34:20;15.70;99.90
20208;DHT22;10263;48.716;8.760;2023-11-19T12:36:49;15.40;99.90
20208;DHT22;10263;48.716;8.760;2023-11-19T12:39:17;15.80;99.90
20208;DHT22;10263;48.716;8.760;2023-11-19T12:41:52;16.20;99.90
20208;DHT22;10263;48.716;8.760;2023-11-19T12:46:53;15.50;99.90
20208;DHT22;10263;48.716;8.760;2023-11-19T12:49:25;15.90;99.90
20208;DHT22;10263;48.716;8.760;2023-11-19T12:51:52;15.40;99.90
20208;DHT22;10263;48.716;8.760;2023-11-19T12:54:20;15.80;99.90
20208;DHT22;10263;48.716;8.760;2023-11-19T12:56:51;15.80;99.90
20208;DHT22;10263;48.716;8.760;2023-11-19T12:59:18;15.00;99.90
20208;DHT22;10263;48.716;8.760;2023-11-19T13:01:54;15.50;99.90
20208;DHT22;10263;48.716;8.760;2023-11-19T13:04:21;16.10;99.90
20208;DHT22;10263;48.716;8.760;2023-11-19T13:06:48;16.50;99.90
20208;DHT22;10263;48.716;8.760;2023-11-19T13:09:26;16.90;99.90
20208;DHT22;10263;48.716;8.760;2023-11-19T13:11:53;17.80;99.90
20208;DHT22;10263;48.716;8.760;2023-11-19T13:14:21;19.00;99.90
20208;DHT22;10263;48.716;8.760;2023-11-19T13:16:47;18.50;99.90
20208;DHT22;10263;48.716;8.760;2023-11-19T13:19:14;17.70;99.90
20208;DHT22;10263;48.716;8.760;2023-11-19T13:21:44;18.10;99.90
20208;DHT22;10263;48.716;8.760;2023-11-19T13:24:29;17.40;99.90
20208;DHT22;10263;48.716;8.760;2023-11-19T13:26:56;17.80;99.90
20208;DHT22;10263;48.716;8.760;2023-11-19T13:29:22;17.40;99.90
20208;DHT22;10263;48.716;8.760;2023-11-19T13:31:49;18.00;99.90
20208;DHT22;10263;48.716;8.760;2023-11-19T13:34:16;19.30;99.90
20208;DHT22;10263;48.716;8.760;2023-11-19T13:36:43;19.40;99.90
20208;DHT22;10263;48.716;8.760;2023-11-19T13:39:10;17.10;99.90
20208;DHT22;10263;48.716;8.760;2023-11-19T13:41:39;19.20;99.90
20208;DHT22;10263;48.716;8.760;2023-11-19T13:53:54;19.00;99.90
20208;DHT22;10263;48.716;8.760;2023-11-19T13:56:21;19.90;99.90
20208;DHT22;10263;48.716;8.760;2023-11-19T13:58:49;19.50;99.90
20208;DHT22;10263;48.716;8.760;2023-11-19T14:01:16;20.50;99.90
20208;DHT22;10263;48.716;8.760;2023-11-19T14:06:10;22.40;98.40
20208;DHT22;10263;48.716;8.760;2023-11-19T14:08:38;23.70;95.60
20208;DHT22;10263;48.716;8.760;2023-11-19T14:11:05;24.70;93.00
20208;DHT22;10263;48.716;8.760;2023-11-19T14:16:01;23.40;90.80
20208;DHT22;10263;48.716;8.760;2023-11-19T14:18:28;21.60;92.40
20208;DHT22;10263;48.716;8.760;2023-11-19T14:20:55;20.60;94.60
20208;DHT22;10263;48.716;8.760;2023-11-19T14:25:53;18.10;97.70
20208;DHT22;10263;48.716;8.760;2023-11-19T14:28:19;17.30;99.10
20208;DHT22;10263;48.716;8.760;2023-11-19T14:30:45;16.40;99.90
20208;DHT22;10263;48.716;8.760;2023-11-19T14:33:16;15.80;99.90
20208;DHT22;10263;48.716;8.760;2023-11-19T14:35:43;15.50;99.90
20208;DHT22;10263;48.716;8.760;2023-11-19T14:38:10;15.10;99.90
20208;DHT22;10263;48.716;8.760;2023-11-19T14:40:37;15.00;99.90
20208;DHT22;10263;48.716;8.760;2023-11-19T14:43:03;14.80;99.90
20208;DHT22;10263;48.716;8.760;2023-11-19T14:45:30;14.50;99.90
20208;DHT22;10263;48.716;8.760;2023-11-19T14:47:57;14.50;99.90
20208;DHT22;10263;48.716;8.760;2023-11-19T14:50:25;14.30;99.90
20208;DHT22;10263;48.716;8.760;2023-11-19T14:52:53;14.10;99.90
20208;DHT22;10263;48.716;8.760;2023-11-19T14:57:47;13.70;99.90
20208;DHT22;10263;48.716;8.760;2023-11-19T15:00:16;13.60;99.90
20208;DHT22;10263;48.716;8.760;2023-11-19T15:02:43;13.40;99.90
20208;DHT22;10263;48.716;8.760;2023-11-19T15:05:10;13.30;99.90
20208;DHT22;10263;48.716;8.760;2023-11-19T15:07:38;13.20;99.90
20208;DHT22;10263;48.716;8.760;2023-11-19T15:10:06;13.10;99.90
20208;DHT22;10263;48.716;8.760;2023-11-19T15:12:36;13.00;99.90
20208;DHT22;10263;48.716;8.760;2023-11-19T15:15:06;13.00;99.90
20208;DHT22;10263;48.716;8.760;2023-11-19T15:17:33;12.90;99.90
20208;DHT22;10263;48.716;8.760;2023-11-19T15:20:02;12.80;99.90
20208;DHT22;10263;48.716;8.760;2023-11-19T15:22:29;12.70;99.90
20208;DHT22;10263;48.716;8.760;2023-11-19T15:24:58;12.60;99.90
20208;DHT22;10263;48.716;8.760;2023-11-19T15:27:24;12.60;99.90
20208;DHT22;10263;48.716;8.760;2023-11-19T15:32:19;12.30;99.90
20208;DHT22;10263;48.716;8.760;2023-11-19T15:34:46;12.20;99.90
20208;DHT22;10263;48.716;8.760;2023-11-19T15:37:12;12.20;99.90
20208;DHT22;10263;48.716;8.760;2023-11-19T15:39:41;12.00;99.90
20208;DHT22;10263;48.716;8.760;2023-11-19T15:42:09;12.00;99.90
20208;DHT22;10263;48.716;8.760;2023-11-19T15:44:37;11.90;99.90
20208;DHT22;10263;48.716;8.760;2023-11-19T15:47:04;11.90;99.90
20208;DHT22;10263;48.716;8.760;2023-11-19T15:49:31;11.90;99.90
20208;DHT22;10263;48.716;8.760;2023-11-19T15:51:57;11.70;99.90
20208;DHT22;10263;48.716;8.760;2023-11-19T15:54:25;12.30;99.90
20208;DHT22;10263;48.716;8.760;2023-11-19T15:56:52;11.70;99.90
20208;DHT22;10263;48.716;8.760;2023-11-19T15:59:20;11.60;99.90
20208;DHT22;10263;48.716;8.760;2023-11-19T16:01:47;11.60;99.90
20208;DHT22;10263;48.716;8.760;2023-11-19T16:04:14;11.50;99.90
20208;DHT22;10263;48.716;8.760;2023-11-19T16:06:41;11.50;99.90
20208;DHT22;10263;48.716;8.760;2023-11-19T16:09:08;11.50;99.90
20208;DHT22;10263;48.716;8.760;2023-11-19T16:16:38;11.40;99.90
20208;DHT22;10263;48.716;8.760;2023-11-19T16:19:05;11.30;99.90
20208;DHT22;10263;48.716;8.760;2023-11-19T16:21:34;11.30;99.90
20208;DHT22;10263;48.716;8.760;2023-11-19T16:24:01;11.20;99.90
20208;DHT22;10263;48.716;8.760;2023-11-19T16:26:28;11.20;99.90
20208;DHT22;10263;48.716;8.760;2023-11-19T16:28:56;11.10;99.90
20208;DHT22;10263;48.716;8.760;2023-11-19T16:33:51;11.10;99.90
20208;DHT22;10263;48.716;8.760;2023-11-19T16:36:18;11.10;99.90
20208;DHT22;10263;48.716;8.760;2023-11-19T16:38:45;11.00;99.90
20208;DHT22;10263;48.716;8.760;2023-11-19T16:41:15;11.00;99.90
20208;DHT22;10263;48.716;8.760;2023-11-19T16:43:45;11.10;99.90
20208;DHT22;10263;48.716;8.760;2023-11-19T16:46:12;11.10;99.90
20208;DHT22;10263;48.716;8.760;2023-11-19T16:48:39;11.30;99.90
20208;DHT22;10263;48.716;8.760;2023-11-19T16:51:11;11.50;99.90
20208;DHT22;10263;48.716;8.760;2023-11-19T16:53:43;11.80;99.90
20208;DHT22;10263;48.716;8.760;2023-11-19T16:56:09;12.00;99.90
20208;DHT22;10263;48.716;8.760;2023-11-19T16:58:36;12.30;99.90
20208;DHT22;10263;48.716;8.760;2023-11-19T17:01:03;12.50;99.90
20208;DHT22;10263;48.716;8.760;2023-11-19T17:03:30;12.50;99.90
20208;DHT22;10263;48.716;8.760;2023-11-19T17:08:25;12.20;99.90
20208;DHT22;10263;48.716;8.760;2023-11-19T17:10:52;12.10;99.90
20208;DHT22;10263;48.716;8.760;2023-11-19T17:13:19;11.90;99.90
20208;DHT22;10263;48.716;8.760;2023-11-19T17:15:47;11.70;99.90
20208;DHT22;10263;48.716;8.760;2023-11-19T17:18:14;11.60;99.90
20208;DHT22;10263;48.716;8.760;2023-11-19T17:20:42;11.50;99.90
20208;DHT22;10263;48.716;8.760;2023-11-19T17:23:09;11.40;99.90
20208;DHT22;10263;48.716;8.760;2023-11-19T17:25:38;11.30;99.90
20208;DHT22;10263;48.716;8.760;2023-11-19T17:28:05;11.20;99.90
20208;DHT22;10263;48.716;8.760;2023-11-19T17:30:33;11.10;99.90
20208;DHT22;10263;48.716;8.760;2023-11-19T17:33:00;11.10;99.90
20208;DHT22;10263;48.716;8.760;2023-11-19T17:35:27;11.00;99.90
20208;DHT22;10263;48.716;8.760;2023-11-19T17:42:50;10.90;99.90
20208;DHT22;10263;48.716;8.760;2023-11-19T17:45:22;10.90;99.90
20208;DHT22;10263;48.716;8.760;2023-11-19T17:47:48;10.90;99.90
20208;DHT22;10263;48.716;8.760;2023-11-19T17:50:15;10.80;99.90
20208;DHT22;10263;48.716;8.760;2023-11-19T17:52:42;10.80;99.90
20208;DHT22;10263;48.716;8.760;2023-11-19T17:55:09;10.80;99.90
20208;DHT22;10263;48.716;8.760;2023-11-19T18:00:08;10.90;99.90
20208;DHT22;10263;48.716;8.760;2023-11-19T18:02:38;10.80;99.90
20208;DHT22;10263;48.716;8.760;2023-11-19T18:05:08;10.80;99.90
20208;DHT22;10263;48.716;8.760;2023-11-19T18:07:35;10.80;99.90
20208;DHT22;10263;48.716;8.760;2023-11-19T18:10:04;10.70;99.90
20208;DHT22;10263;48.716;8.760;2023-11-19T18:12:32;10.70;99.90
20208;DHT22;10263;48.716;8.760;2023-11-19T18:14:59;10.70;99.90
20208;DHT22;10263;48.716;8.760;2023-11-19T18:17:27;10.70;99.90
20208;DHT22;10263;48.716;8.760;2023-11-19T18:22:21;10.70;99.90
20208;DHT22;10263;48.716;8.760;2023-11-19T18:24:49;10.60;99.90
20208;DHT22;10263;48.716;8.760;2023-11-19T18:27:16;10.70;99.90
20208;DHT22;10263;48.716;8.760;2023-11-19T18:34:41;10.60;99.90
20208;DHT22;10263;48.716;8.760;2023-11-19T18:37:08;10.60;99.90
20208;DHT22;10263;48.716;8.760;2023-11-19T18:46:57;10.80;99.90
20208;DHT22;10263;48.716;8.760;2023-11-19T18:51:53;10.70;99.90
20208;DHT22;10263;48.716;8.760;2023-11-19T18:56:48;10.70;99.90